createdAt,value
2023-03-22T00:00:13.738Z,66.28
2023-03-22T00:02:16.599Z,66.28
2023-03-22T00:04:18.720Z,66.20
2023-03-22T00:06:20.863Z,65.77
2023-03-22T00:08:23.018Z,66.12
2023-03-22T00:10:26.100Z,66.11
2023-03-22T00:12:28.124Z,65.56
2023-03-22T00:14:30.115Z,65.92
2023-03-22T00:16:32.289Z,65.91
2023-03-22T00:18:34.350Z,66.33
2023-03-22T00:20:38.687Z,66.10
2023-03-22T00:22:40.925Z,66.25
2023-03-22T00:24:42.944Z,66.45
2023-03-22T00:26:47.222Z,67.36
2023-03-22T00:28:49.116Z,67.07
2023-03-22T00:30:53.588Z,67.04
2023-03-22T00:32:55.621Z,66.96
2023-03-22T00:34:57.578Z,67.57
2023-03-22T00:37:00.151Z,67.07
2023-03-22T00:39:02.276Z,66.91
2023-03-22T00:41:09.163Z,66.45
2023-03-22T00:43:11.535Z,66.92
2023-03-22T00:45:13.879Z,67.32
2023-03-22T00:47:16.058Z,66.92
2023-03-22T00:49:19.034Z,66.97
2023-03-22T00:51:21.211Z,67.15
2023-03-22T00:53:23.276Z,67.35
2023-03-22T00:55:25.467Z,67.12
2023-03-22T00:57:27.398Z,66.94
2023-03-22T00:59:29.344Z,67.04
2023-03-22T01:01:31.424Z,66.75
2023-03-22T01:03:33.428Z,66.61
2023-03-22T01:05:35.491Z,66.47
2023-03-22T01:07:38.501Z,66.38
2023-03-22T01:09:40.720Z,66.65
2023-03-22T01:11:43.791Z,66.24
2023-03-22T01:13:45.824Z,66.66
2023-03-22T01:15:51.190Z,67.74
2023-03-22T01:17:53.169Z,67.50
2023-03-22T01:19:55.085Z,67.76
2023-03-22T01:21:57.968Z,68.61
2023-03-22T01:24:01.763Z,68.75
2023-03-22T01:26:04.580Z,69.45
2023-03-22T01:28:07.863Z,69.42
2023-03-22T01:30:10.717Z,69.75
2023-03-22T01:32:12.740Z,69.90
2023-03-22T01:34:14.686Z,70.44
2023-03-22T01:36:17.245Z,70.28
2023-03-22T01:38:19.222Z,70.39
2023-03-22T01:40:21.348Z,70.62
2023-03-22T01:42:24.071Z,70.38
2023-03-22T01:44:30.939Z,70.90
2023-03-22T01:46:33.497Z,70.91
2023-03-22T01:48:42.310Z,70.99
2023-03-22T01:50:52.045Z,70.73
2023-03-22T01:52:57.501Z,70.94
2023-03-22T01:54:59.540Z,71.37
2023-03-22T01:57:02.798Z,71.40
2023-03-22T01:59:06.740Z,71.91
2023-03-22T02:01:11.737Z,71.49
2023-03-22T02:03:19.177Z,71.35
2023-03-22T02:05:22.545Z,72.53
2023-03-22T02:07:27.448Z,72.09
2023-03-22T02:09:29.990Z,72.38
2023-03-22T02:11:38.768Z,72.56
2023-03-22T02:13:48.187Z,72.20
2023-03-22T02:15:56.441Z,72.33
2023-03-22T02:18:06.469Z,72.47
2023-03-22T02:20:15.681Z,71.87
2023-03-22T02:22:23.908Z,72.17
2023-03-22T02:24:29.310Z,71.82
2023-03-22T02:26:39.377Z,71.90
2023-03-22T02:28:50.616Z,72.21
2023-03-22T02:30:56.218Z,72.75
2023-03-22T02:33:01.756Z,73.04
2023-03-22T02:35:08.140Z,73.34
2023-03-22T02:37:14.922Z,73.63
2023-03-22T02:39:23.101Z,73.54
2023-03-22T02:41:38.659Z,73.39
2023-03-22T02:43:50.776Z,73.39
2023-03-22T02:46:04.537Z,72.77
2023-03-22T02:48:12.706Z,72.66
2023-03-22T02:50:23.147Z,72.27
2023-03-22T02:52:31.952Z,71.59
2023-03-22T02:54:44.671Z,70.86
2023-03-22T02:56:54.537Z,70.23
2023-03-22T02:59:01.070Z,70.08
2023-03-22T03:01:09.355Z,69.61
2023-03-22T03:03:15.615Z,69.37
2023-03-22T03:05:20.480Z,70.48
2023-03-22T03:07:27.539Z,70.15
2023-03-22T03:09:30.183Z,69.74
2023-03-22T03:11:32.528Z,70.83
2023-03-22T03:13:34.461Z,70.30
2023-03-22T03:15:39.694Z,70.18
2023-03-22T03:17:47.961Z,70.43
2023-03-22T03:19:54.326Z,71.20
2023-03-22T03:22:07.876Z,71.74
2023-03-22T03:24:18.840Z,71.27
2023-03-22T03:26:29.598Z,71.16
2023-03-22T03:28:39.446Z,70.76
2023-03-22T03:30:49.779Z,70.26
2023-03-22T03:32:59.398Z,70.77
2023-03-22T03:35:08.753Z,71.08
2023-03-22T03:37:17.995Z,70.80
2023-03-22T03:39:22.436Z,71.09
2023-03-22T03:41:28.651Z,71.21
2023-03-22T03:43:32.122Z,71.73
2023-03-22T03:45:36.212Z,71.39
2023-03-22T03:47:38.443Z,72.26
2023-03-22T03:49:40.644Z,72.57
2023-03-22T03:51:47.679Z,72.63
2023-03-22T03:53:49.643Z,72.37
2023-03-22T03:55:51.717Z,72.28
2023-03-22T03:57:53.643Z,72.66
2023-03-22T03:59:55.606Z,72.70
2023-03-22T04:01:57.809Z,72.65
2023-03-22T04:03:59.834Z,73.04
2023-03-22T04:06:02.131Z,73.52
2023-03-22T04:08:04.292Z,73.06
2023-03-22T04:10:08.334Z,72.95
2023-03-22T04:12:10.468Z,72.74
2023-03-22T04:14:12.502Z,73.19
2023-03-22T04:16:14.469Z,73.64
2023-03-22T04:18:16.483Z,73.76
2023-03-22T04:20:19.748Z,73.89
2023-03-22T04:22:21.706Z,73.94
2023-03-22T04:24:23.758Z,74.25
2023-03-22T04:26:26.985Z,74.78
2023-03-22T04:28:29.107Z,74.65
2023-03-22T04:30:36.421Z,75.11
2023-03-22T04:32:39.085Z,76.11
2023-03-22T04:34:41.094Z,76.26
2023-03-22T04:36:43.384Z,76.32
2023-03-22T04:38:46.093Z,76.59
2023-03-22T04:40:48.029Z,77.38
2023-03-22T04:42:49.986Z,76.97
2023-03-22T04:44:52.271Z,77.11
2023-03-22T04:46:54.195Z,77.42
2023-03-22T04:48:56.137Z,78.53
2023-03-22T04:50:58.383Z,78.84
2023-03-22T04:53:00.400Z,79.46
2023-03-22T04:55:02.558Z,79.76
2023-03-22T04:57:04.878Z,79.88
2023-03-22T04:59:07.176Z,80.20
2023-03-22T05:01:10.742Z,80.09
2023-03-22T05:03:13.474Z,80.40
2023-03-22T05:05:15.939Z,80.17
2023-03-22T05:07:17.869Z,81.33
2023-03-22T05:09:22.849Z,80.52
2023-03-22T05:11:28.216Z,80.92
2023-03-22T05:13:30.218Z,80.63
2023-03-22T05:15:32.737Z,80.81
2023-03-22T05:17:34.759Z,81.50
2023-03-22T05:19:36.925Z,80.63
2023-03-22T05:21:41.159Z,80.78
2023-03-22T05:23:44.456Z,81.15
2023-03-22T05:25:48.678Z,80.92
2023-03-22T05:27:54.301Z,81.01
2023-03-22T05:29:56.358Z,80.93
2023-03-22T05:31:58.474Z,81.62
2023-03-22T05:34:01.636Z,81.97
2023-03-22T05:36:03.885Z,81.92
2023-03-22T05:38:06.840Z,81.55
2023-03-22T05:40:10.257Z,81.45
2023-03-22T05:42:12.181Z,81.33
2023-03-22T05:44:14.257Z,81.91
2023-03-22T05:46:16.242Z,82.14
2023-03-22T05:48:18.439Z,81.20
2023-03-22T05:50:23.133Z,81.64
2023-03-22T05:52:25.121Z,82.40
2023-03-22T05:54:27.038Z,81.89
2023-03-22T05:56:28.998Z,82.27
2023-03-22T05:58:32.412Z,82.29
2023-03-22T06:00:35.783Z,82.54
2023-03-22T06:02:37.733Z,83.27
2023-03-22T06:04:41.771Z,83.35
2023-03-22T06:06:43.843Z,82.97
2023-03-22T06:08:45.804Z,82.55
2023-03-22T06:10:51.301Z,82.79
2023-03-22T06:12:54.201Z,82.63
2023-03-22T06:14:56.221Z,82.83
2023-03-22T06:16:58.305Z,82.35
2023-03-22T06:19:00.365Z,82.94
2023-03-22T06:21:02.489Z,82.85
2023-03-22T06:23:04.560Z,83.00
2023-03-22T06:25:09.444Z,83.00
2023-03-22T06:27:11.436Z,83.06
2023-03-22T06:29:13.691Z,83.85
2023-03-22T06:31:15.765Z,83.68
2023-03-22T06:33:17.784Z,82.83
2023-03-22T06:35:20.271Z,83.28
2023-03-22T06:37:22.864Z,83.49
2023-03-22T06:39:24.986Z,83.25
2023-03-22T06:41:27.138Z,83.26
2023-03-22T06:43:29.075Z,83.30
2023-03-22T06:45:33.561Z,83.92
2023-03-22T06:47:35.710Z,83.38
2023-03-22T06:49:38.115Z,83.28
2023-03-22T06:51:40.210Z,84.21
2023-03-22T06:53:42.568Z,84.48
2023-03-22T06:55:44.689Z,83.80
2023-03-22T06:57:46.809Z,83.40
2023-03-22T06:59:48.856Z,83.45
2023-03-22T07:01:51.129Z,84.29
2023-03-22T07:03:53.120Z,83.76
2023-03-22T07:06:02.078Z,83.41
2023-03-22T07:08:04.097Z,83.76
2023-03-22T07:10:08.203Z,83.36
2023-03-22T07:12:10.337Z,83.34
2023-03-22T07:14:12.688Z,83.30
2023-03-22T07:16:14.892Z,83.22
2023-03-22T07:18:16.821Z,82.90
2023-03-22T07:20:20.119Z,82.56
2023-03-22T07:22:22.570Z,81.95
2023-03-22T07:24:24.630Z,81.97
2023-03-22T07:26:26.679Z,81.96
2023-03-22T07:28:28.795Z,81.19
2023-03-22T07:30:30.932Z,81.08
2023-03-22T07:32:33.041Z,80.70
2023-03-22T07:34:35.089Z,80.73
2023-03-22T07:36:38.995Z,80.51
2023-03-22T07:38:41.395Z,81.30
2023-03-22T07:40:43.568Z,81.66
2023-03-22T07:42:48.728Z,81.00
2023-03-22T07:44:50.920Z,81.02
2023-03-22T07:46:52.982Z,80.89
2023-03-22T07:48:55.405Z,80.90
2023-03-22T07:50:57.533Z,81.03
2023-03-22T07:52:59.517Z,80.69
2023-03-22T07:55:01.662Z,80.40
2023-03-22T07:57:03.959Z,81.31
2023-03-22T07:59:06.765Z,81.31
2023-03-22T08:01:09.526Z,82.33
2023-03-22T08:03:13.555Z,82.35
2023-03-22T08:05:15.854Z,82.07
2023-03-22T08:07:18.814Z,82.38
2023-03-22T08:09:20.964Z,82.44
2023-03-22T08:11:23.116Z,82.15
2023-03-22T08:13:25.168Z,81.83
2023-03-22T08:15:27.653Z,82.88
2023-03-22T08:17:30.570Z,83.23
2023-03-22T08:19:33.438Z,82.67
2023-03-22T08:21:35.515Z,83.00
2023-03-22T08:23:42.177Z,83.04
2023-03-22T08:25:44.596Z,84.13
2023-03-22T08:27:47.325Z,83.41
2023-03-22T08:29:49.463Z,83.63
2023-03-22T08:31:52.146Z,84.19
2023-03-22T08:33:54.334Z,84.17
2023-03-22T08:36:02.737Z,84.38
2023-03-22T08:38:05.511Z,85.14
2023-03-22T08:40:09.751Z,85.38
2023-03-22T08:42:13.836Z,85.84
2023-03-22T08:44:16.226Z,86.02
2023-03-22T08:46:18.433Z,85.83
2023-03-22T08:48:20.966Z,85.96
2023-03-22T08:50:23.571Z,86.95
2023-03-22T08:52:26.290Z,85.99
2023-03-22T08:54:33.629Z,85.18
2023-03-22T08:56:38.393Z,85.80
2023-03-22T08:58:40.968Z,86.27
2023-03-22T09:00:49.046Z,86.65
2023-03-22T09:02:52.138Z,86.04
2023-03-22T09:04:56.186Z,86.16
2023-03-22T09:06:58.308Z,87.06
2023-03-22T09:09:00.430Z,86.92
2023-03-22T09:11:02.562Z,87.46
2023-03-22T09:13:04.834Z,87.42
2023-03-22T09:15:07.835Z,88.81
2023-03-22T09:17:10.088Z,88.36
2023-03-22T09:19:12.074Z,88.57
2023-03-22T09:21:14.306Z,88.25
2023-03-22T09:23:17.177Z,88.13
2023-03-22T09:25:19.620Z,87.94
2023-03-22T09:27:21.823Z,87.52
2023-03-22T09:29:24.177Z,87.71
2023-03-22T09:31:26.853Z,89.29
2023-03-22T09:33:29.097Z,88.44
2023-03-22T09:35:32.490Z,87.14
2023-03-22T09:37:35.549Z,86.64
2023-03-22T09:39:38.914Z,86.64
2023-03-22T09:41:52.185Z,86.39
2023-03-22T09:44:00.344Z,86.39
2023-03-22T09:46:13.518Z,86.38
2023-03-22T09:48:21.900Z,86.65
2023-03-22T09:50:30.590Z,86.52
2023-03-22T09:52:33.427Z,85.45
2023-03-22T09:54:39.700Z,85.69
2023-03-22T09:56:43.640Z,84.73
2023-03-22T09:58:49.561Z,84.26
2023-03-22T10:01:02.076Z,84.06
2023-03-22T10:03:14.184Z,84.48
2023-03-22T10:05:20.018Z,84.02
2023-03-22T10:07:27.745Z,82.54
2023-03-22T10:09:38.669Z,82.46
2023-03-22T10:11:45.914Z,82.35
2023-03-22T10:13:56.656Z,82.05
2023-03-22T10:16:03.474Z,81.94
2023-03-22T10:18:12.354Z,81.70
2023-03-22T10:20:21.225Z,81.33
2023-03-22T10:22:30.619Z,80.53
2023-03-22T10:24:36.273Z,80.16
2023-03-22T10:26:42.301Z,79.78
2023-03-22T10:28:48.767Z,79.58
2023-03-22T10:30:55.081Z,79.10
2023-03-22T10:33:00.176Z,78.81
2023-03-22T10:35:03.011Z,77.94
2023-03-22T10:37:08.033Z,77.84
2023-03-22T10:39:17.162Z,77.60
2023-03-22T10:41:24.307Z,77.25
2023-03-22T10:43:34.020Z,76.93
2023-03-22T10:45:37.862Z,77.07
2023-03-22T10:47:47.667Z,77.48
2023-03-22T10:49:55.712Z,77.45
2023-03-22T10:52:03.381Z,76.66
2023-03-22T10:54:07.309Z,76.00
2023-03-22T10:56:15.548Z,74.82
2023-03-22T10:58:22.291Z,74.13
2023-03-22T11:00:25.701Z,74.25
2023-03-22T11:02:31.670Z,70.89
2023-03-22T11:04:33.889Z,68.61
2023-03-22T11:06:41.279Z,68.56
2023-03-22T11:08:49.386Z,66.37
2023-03-22T11:10:52.705Z,65.38
2023-03-22T11:12:56.831Z,64.56
2023-03-22T11:14:59.706Z,64.58
2023-03-22T11:17:10.388Z,63.97
2023-03-22T11:19:18.924Z,64.73
2023-03-22T11:21:26.433Z,62.57
2023-03-22T11:23:34.391Z,62.56
2023-03-22T11:25:38.511Z,62.29
2023-03-22T11:27:53.712Z,62.08
2023-03-22T11:30:01.079Z,62.00
2023-03-22T11:32:03.317Z,61.63
2023-03-22T11:34:17.708Z,60.87
2023-03-22T11:36:20.235Z,60.39
2023-03-22T11:38:30.229Z,60.02
2023-03-22T11:40:35.850Z,59.78
2023-03-22T11:42:38.435Z,58.98
2023-03-22T11:44:40.986Z,59.15
2023-03-22T11:46:49.705Z,58.61
2023-03-22T11:48:59.656Z,58.86
2023-03-22T11:51:10.682Z,58.68
2023-03-22T11:53:17.148Z,57.08
2023-03-22T11:55:19.947Z,57.84
2023-03-22T11:57:26.784Z,58.21
2023-03-22T11:59:36.935Z,58.53
2023-03-22T12:01:41.295Z,58.72
2023-03-22T12:03:49.832Z,58.32
2023-03-22T12:05:53.508Z,58.10
2023-03-22T12:08:00.205Z,57.96
2023-03-22T12:10:08.034Z,58.45
2023-03-22T12:12:18.366Z,58.69
2023-03-22T12:14:29.234Z,58.62
2023-03-22T12:16:41.937Z,58.05
2023-03-22T12:18:51.708Z,58.46
2023-03-22T12:20:55.867Z,58.60
2023-03-22T12:22:58.987Z,58.44
2023-03-22T12:25:04.033Z,59.16
2023-03-22T12:27:10.903Z,59.12
2023-03-22T12:29:18.563Z,59.45
2023-03-22T12:31:27.167Z,59.26
2023-03-22T12:33:34.112Z,58.62
2023-03-22T12:35:43.133Z,58.10
2023-03-22T12:37:50.264Z,56.73
2023-03-22T12:40:00.191Z,57.75
2023-03-22T12:42:13.973Z,57.68
2023-03-22T12:44:22.932Z,57.74
2023-03-22T12:46:32.166Z,57.76
2023-03-22T12:48:40.894Z,57.68
2023-03-22T12:50:49.385Z,58.61
2023-03-22T12:52:56.660Z,58.02
2023-03-22T12:55:02.515Z,57.86
2023-03-22T12:57:06.530Z,59.10
2023-03-22T12:59:17.165Z,59.07
2023-03-22T13:01:25.840Z,58.27
2023-03-22T13:03:37.209Z,58.03
2023-03-22T13:05:40.139Z,58.73
2023-03-22T13:07:47.095Z,58.79
2023-03-22T13:09:51.234Z,58.72
2023-03-22T13:12:00.917Z,59.08
2023-03-22T13:14:03.478Z,59.60
2023-03-22T13:16:09.572Z,59.43
2023-03-22T13:18:18.469Z,58.77
2023-03-22T13:20:27.560Z,58.97
2023-03-22T13:22:51.549Z,58.58
2023-03-22T13:24:59.643Z,57.44
2023-03-22T13:27:02.344Z,57.34
2023-03-22T13:29:10.672Z,57.82
2023-03-22T13:31:34.883Z,57.52
2023-03-22T13:33:38.033Z,56.49
2023-03-22T13:35:46.824Z,56.64
2023-03-22T13:37:51.251Z,56.85
2023-03-22T13:39:54.432Z,57.18
2023-03-22T13:42:03.896Z,57.26
2023-03-22T13:44:12.665Z,57.72
2023-03-22T13:46:20.435Z,57.55
2023-03-22T13:48:29.626Z,56.75
2023-03-22T13:50:34.420Z,57.43
2023-03-22T13:52:42.114Z,58.06
2023-03-22T13:54:50.101Z,57.74
2023-03-22T13:57:00.700Z,57.76
2023-03-22T13:59:05.400Z,57.51
2023-03-22T14:01:17.117Z,57.50
2023-03-22T14:03:27.624Z,57.38
2023-03-22T14:05:36.539Z,57.21
2023-03-22T14:07:43.132Z,56.63
2023-03-22T14:09:52.824Z,56.63
2023-03-22T14:12:06.237Z,57.20
2023-03-22T14:14:16.647Z,58.31
2023-03-22T14:16:32.526Z,57.97
2023-03-22T14:18:37.560Z,58.29
2023-03-22T14:20:41.503Z,57.80
